Klawock Airport Klawock US
ICAO: PAKW
IATA:
Category: Medium
Scheduled Services:

Elevation: 80 ft
TransAlt. 18000 ft.

Airport Communications:
ASOS:135.45
ANCHORAGE CNTR:118.5
CTAF:120.9
KETCHIKAN RDO:122.25

PAKW Zoom In..

Runways:

(A) RW 02 length 5000 ft width 100 ft
---- / hdg 19

(B) RW 20 length 5000 ft width 100 ft
---- / hdg 199

Location; PAKW
Day. 20 / Time. 16.53 Zulu
* Altimeter: 29.87
* Temperature: 10° c. 50°f.
* Wind from: 000° Speed 00 kn.
Dewpoint: 09° c.
Visibility: 10 Statute Miles.
Clouds: Broken 1300 ft.
Clouds: Overcast 2500 ft.

PAKW 201653Z AUTO 00000KT 10SM BKN013 OVC025 10/09 A2987 RMK AO2 SLP116 T01000094 TSNO


Wind - Calm.

 
 
jpsmedia.com for Web Design SOUNDCLOUD worldairports.se 2018   terms of use